createdAt,value
2022-11-22T00:03:53.667Z,-0.60
2022-11-22T00:08:15.780Z,-0.60
2022-11-22T00:12:37.603Z,-0.70
2022-11-22T00:16:59.418Z,-0.80
2022-11-22T00:21:21.346Z,-0.90
2022-11-22T00:25:43.301Z,-1.10
2022-11-22T00:30:06.525Z,-1.20
2022-11-22T00:34:28.265Z,-1.40
2022-11-22T00:38:50.553Z,-1.40
2022-11-22T00:43:12.305Z,-1.50
2022-11-22T00:47:34.379Z,-1.60
2022-11-22T00:51:56.321Z,-1.50
2022-11-22T00:56:18.216Z,-1.60
2022-11-22T01:00:40.260Z,-1.70
2022-11-22T01:05:02.424Z,-1.80
2022-11-22T01:09:24.825Z,-1.80
2022-11-22T01:13:46.529Z,-1.80
2022-11-22T01:18:08.443Z,-1.60
2022-11-22T01:22:30.486Z,-1.50
2022-11-22T01:26:52.434Z,-1.40
2022-11-22T01:31:14.367Z,-1.30
2022-11-22T01:35:36.678Z,-1.10
2022-11-22T01:39:58.406Z,-1.00
2022-11-22T01:44:33.076Z,-0.80
2022-11-22T01:49:11.676Z,-0.90
2022-11-22T01:53:39.830Z,-0.80
2022-11-22T01:58:03.359Z,-0.90
2022-11-22T02:02:25.694Z,-0.90
2022-11-22T02:06:58.056Z,-0.90
2022-11-22T02:11:21.419Z,-0.90
2022-11-22T02:15:43.577Z,-0.70
2022-11-22T02:20:08.039Z,-0.60
2022-11-22T02:24:42.898Z,-0.80
2022-11-22T02:29:07.887Z,-0.80
2022-11-22T02:33:29.830Z,-0.80
2022-11-22T02:38:14.508Z,-0.80
2022-11-22T02:42:36.586Z,-0.80
2022-11-22T02:46:58.168Z,-0.70
2022-11-22T02:51:20.425Z,-0.70
2022-11-22T02:55:42.665Z,-0.60
2022-11-22T03:00:04.994Z,-0.40
2022-11-22T03:04:26.990Z,-0.20
2022-11-22T03:08:54.652Z,0.00
2022-11-22T03:13:17.934Z,0.10
2022-11-22T03:17:39.888Z,0.10
2022-11-22T03:22:01.873Z,0.20
2022-11-22T03:26:23.773Z,0.40
2022-11-22T03:30:45.607Z,0.60
2022-11-22T03:35:08.357Z,0.80
2022-11-22T03:39:30.217Z,1.10
2022-11-22T03:43:52.070Z,1.30
2022-11-22T03:48:14.645Z,1.30
2022-11-22T03:52:36.555Z,1.40
2022-11-22T03:56:58.173Z,1.50
2022-11-22T04:01:20.214Z,1.50
2022-11-22T04:05:42.176Z,1.50
2022-11-22T04:10:05.772Z,1.50
2022-11-22T04:14:46.630Z,1.50
2022-11-22T04:19:08.867Z,1.50
2022-11-22T04:23:33.955Z,1.50
2022-11-22T04:27:57.237Z,1.50
2022-11-22T04:32:37.800Z,1.50
2022-11-22T04:37:00.546Z,1.60
2022-11-22T04:41:22.539Z,1.60
2022-11-22T04:45:45.442Z,1.70
2022-11-22T04:50:29.188Z,1.80
2022-11-22T04:54:51.153Z,2.00
2022-11-22T04:59:13.081Z,2.10
2022-11-22T05:03:35.230Z,2.20
2022-11-22T05:07:59.020Z,2.20
2022-11-22T05:12:20.584Z,2.40
2022-11-22T05:16:42.849Z,2.40
2022-11-22T05:21:10.783Z,2.50
2022-11-22T05:25:32.715Z,2.50
2022-11-22T05:29:54.521Z,2.50
2022-11-22T05:34:16.560Z,2.50
2022-11-22T05:38:39.228Z,2.50
2022-11-22T05:43:00.872Z,2.50
2022-11-22T05:47:22.755Z,2.50
2022-11-22T05:51:44.854Z,2.50
2022-11-22T05:56:09.104Z,2.50
2022-11-22T06:00:31.243Z,2.40
2022-11-22T06:04:53.251Z,2.30
2022-11-22T06:09:15.285Z,2.20
2022-11-22T06:13:39.288Z,2.10
2022-11-22T06:18:01.288Z,2.00
2022-11-22T06:22:23.066Z,1.90
2022-11-22T06:26:45.089Z,1.90
2022-11-22T06:31:17.565Z,1.90
2022-11-22T06:35:39.233Z,2.10
2022-11-22T06:40:00.997Z,2.10
2022-11-22T06:44:23.035Z,2.20
2022-11-22T06:48:45.610Z,2.20
2022-11-22T06:53:17.005Z,2.20
2022-11-22T06:57:51.992Z,2.10
2022-11-22T07:02:13.946Z,2.10
2022-11-22T07:06:38.841Z,2.10
2022-11-22T07:11:11.072Z,2.20
2022-11-22T07:15:33.044Z,2.30
2022-11-22T07:19:54.879Z,2.30
2022-11-22T07:24:17.890Z,2.30
2022-11-22T07:28:40.567Z,2.40
2022-11-22T07:33:02.415Z,2.40
2022-11-22T07:37:24.228Z,2.50
2022-11-22T07:41:46.030Z,2.60
2022-11-22T07:46:18.517Z,2.60
2022-11-22T07:50:41.835Z,2.70
2022-11-22T07:55:11.015Z,2.70
2022-11-22T07:59:35.696Z,2.70
2022-11-22T08:03:57.531Z,2.80
2022-11-22T08:08:19.385Z,2.80
2022-11-22T08:12:41.642Z,2.90
2022-11-22T08:17:03.860Z,3.00
2022-11-22T08:21:25.749Z,3.20
2022-11-22T08:25:47.782Z,3.30
2022-11-22T08:30:11.791Z,3.50
2022-11-22T08:34:34.429Z,3.50
2022-11-22T08:38:56.873Z,3.50
2022-11-22T08:43:19.305Z,3.50
2022-11-22T08:47:41.018Z,3.50
2022-11-22T08:52:02.935Z,3.60
2022-11-22T08:56:25.000Z,3.70
2022-11-22T09:00:47.201Z,3.80
2022-11-22T09:05:09.540Z,3.90
2022-11-22T09:09:42.801Z,3.90
2022-11-22T09:14:04.571Z,4.00
2022-11-22T09:18:26.652Z,4.00
2022-11-22T09:22:48.490Z,4.20
2022-11-22T09:27:10.515Z,4.30
2022-11-22T09:31:32.617Z,4.40
2022-11-22T09:36:05.162Z,4.60
2022-11-22T09:40:26.887Z,4.60
2022-11-22T09:45:31.110Z,4.70
2022-11-22T09:50:19.590Z,4.60
2022-11-22T09:55:10.845Z,4.50
2022-11-22T09:59:39.108Z,4.40
2022-11-22T10:04:20.294Z,4.40
2022-11-22T10:09:20.542Z,4.40
2022-11-22T10:13:57.326Z,4.40
2022-11-22T10:19:16.702Z,4.50
2022-11-22T10:23:39.311Z,4.60
2022-11-22T10:28:19.470Z,4.60
2022-11-22T10:33:23.073Z,4.70
2022-11-22T10:38:23.873Z,4.80
2022-11-22T10:43:14.642Z,4.60
2022-11-22T10:48:14.365Z,4.60
2022-11-22T10:53:10.859Z,4.80
2022-11-22T10:58:00.373Z,4.90
2022-11-22T11:02:59.819Z,5.00
2022-11-22T11:07:24.647Z,5.00
2022-11-22T11:11:49.054Z,5.00
2022-11-22T11:16:17.938Z,5.20
2022-11-22T11:20:43.728Z,5.50
2022-11-22T11:25:31.064Z,5.90
2022-11-22T11:30:01.996Z,6.40
2022-11-22T11:34:29.247Z,6.60
2022-11-22T11:38:56.536Z,6.60
2022-11-22T11:43:24.770Z,6.40
2022-11-22T11:47:46.808Z,6.40
2022-11-22T11:52:25.820Z,6.50
2022-11-22T11:56:57.776Z,6.40
2022-11-22T12:01:20.864Z,6.20
2022-11-22T12:05:43.104Z,6.30
2022-11-22T12:10:46.832Z,6.40
2022-11-22T12:15:36.646Z,6.60
2022-11-22T12:20:14.667Z,6.60
2022-11-22T12:25:30.943Z,6.70
2022-11-22T12:29:44.924Z,6.60
2022-11-22T12:34:18.798Z,6.40
2022-11-22T12:38:44.110Z,6.20
2022-11-22T12:43:27.138Z,6.10
2022-11-22T12:47:51.474Z,6.00
2022-11-22T12:52:37.522Z,6.00
2022-11-22T12:57:07.624Z,6.00
2022-11-22T13:01:54.721Z,6.00
2022-11-22T13:06:24.134Z,6.00
2022-11-22T13:10:50.096Z,5.90
2022-11-22T13:15:27.072Z,5.90
2022-11-22T13:20:02.636Z,6.00
2022-11-22T13:24:47.074Z,6.20
2022-11-22T13:29:27.028Z,6.40
2022-11-22T13:34:00.580Z,6.50
2022-11-22T13:38:22.746Z,6.60
2022-11-22T13:42:44.568Z,6.80
2022-11-22T13:47:24.786Z,6.80
2022-11-22T13:51:56.529Z,6.80
2022-11-22T13:56:21.410Z,6.80
2022-11-22T14:00:43.486Z,6.70
2022-11-22T14:05:39.661Z,6.60
2022-11-22T14:10:05.526Z,6.50
2022-11-22T14:14:57.929Z,6.40
2022-11-22T14:20:01.800Z,6.30
2022-11-22T14:24:50.093Z,6.20
2022-11-22T14:29:42.708Z,6.10
2022-11-22T14:34:26.008Z,6.00
2022-11-22T14:38:47.997Z,5.80
2022-11-22T14:43:37.672Z,5.70
2022-11-22T14:48:16.670Z,5.50
2022-11-22T14:52:39.305Z,5.40
2022-11-22T14:57:13.032Z,5.30
2022-11-22T15:01:56.634Z,5.20
2022-11-22T15:09:21.288Z,5.10
2022-11-22T15:11:20.829Z,5.00
2022-11-22T15:58:50.223Z,4.00
2022-11-22T16:03:26.391Z,4.00
2022-11-22T16:07:49.456Z,3.90
2022-11-22T16:12:37.446Z,3.80
2022-11-22T16:17:25.995Z,3.70
2022-11-22T16:22:02.008Z,3.60
2022-11-22T16:26:31.672Z,3.60
2022-11-22T16:31:02.724Z,3.50
2022-11-22T16:35:31.966Z,3.50
2022-11-22T16:39:54.249Z,3.50
2022-11-22T16:44:20.164Z,3.50
2022-11-22T16:48:43.755Z,3.40
2022-11-22T16:53:15.223Z,3.40
2022-11-22T16:57:37.218Z,3.40
2022-11-22T17:02:00.033Z,3.40
2022-11-22T17:06:25.743Z,3.30
2022-11-22T17:10:51.016Z,3.30
2022-11-22T17:15:17.384Z,3.30
2022-11-22T17:19:53.116Z,3.30
2022-11-22T17:24:21.986Z,3.30
2022-11-22T17:28:43.796Z,3.30
2022-11-22T17:33:06.320Z,3.20
2022-11-22T17:37:29.854Z,3.10
2022-11-22T17:41:51.648Z,3.00
2022-11-22T17:46:13.708Z,2.90
2022-11-22T17:50:35.440Z,2.90
2022-11-22T17:55:00.632Z,2.70
2022-11-22T17:59:25.423Z,2.70
2022-11-22T18:03:48.106Z,2.70
2022-11-22T18:08:09.932Z,2.70
2022-11-22T18:12:35.428Z,2.70
2022-11-22T18:17:03.450Z,2.70
2022-11-22T18:21:29.443Z,2.70
2022-11-22T18:25:52.473Z,2.70
2022-11-22T18:30:15.205Z,2.70
2022-11-22T18:34:37.838Z,2.70
2022-11-22T18:38:59.451Z,2.70
2022-11-22T18:43:21.599Z,2.70
2022-11-22T18:47:45.056Z,2.70
2022-11-22T18:52:06.978Z,2.80
2022-11-22T18:56:28.887Z,2.80
2022-11-22T19:00:53.787Z,2.70
2022-11-22T19:05:16.290Z,2.70
2022-11-22T19:09:38.378Z,2.80
2022-11-22T19:14:00.998Z,2.70
2022-11-22T19:18:22.898Z,2.60
2022-11-22T19:22:44.846Z,2.50
2022-11-22T19:27:06.851Z,2.60
2022-11-22T19:31:30.317Z,2.60
2022-11-22T19:36:00.361Z,2.60
2022-11-22T19:40:22.298Z,2.70
2022-11-22T19:44:44.291Z,2.70
2022-11-22T19:49:06.459Z,2.60
2022-11-22T19:53:28.061Z,2.60
2022-11-22T19:57:50.185Z,2.60
2022-11-22T20:02:13.652Z,2.60
2022-11-22T20:06:36.780Z,2.70
2022-11-22T20:11:21.871Z,2.70
2022-11-22T20:15:43.620Z,2.70
2022-11-22T20:20:07.240Z,2.60
2022-11-22T20:24:30.615Z,2.50
2022-11-22T20:29:06.163Z,2.60
2022-11-22T20:33:28.333Z,2.70
2022-11-22T20:37:50.387Z,2.60
2022-11-22T20:42:33.795Z,2.60
2022-11-22T20:46:54.220Z,2.60
2022-11-22T20:51:19.530Z,2.50
2022-11-22T20:55:41.304Z,2.60
2022-11-22T21:00:04.016Z,2.60
2022-11-22T21:04:25.990Z,2.50
2022-11-22T21:08:48.057Z,2.50
2022-11-22T21:13:10.505Z,2.50
2022-11-22T21:18:01.942Z,2.40
2022-11-22T21:22:14.575Z,2.40
2022-11-22T21:26:36.686Z,2.50
2022-11-22T21:30:58.716Z,2.40
2022-11-22T21:35:20.554Z,2.40
2022-11-22T21:39:42.517Z,2.40
2022-11-22T21:44:04.856Z,2.40
2022-11-22T21:48:26.648Z,2.30
2022-11-22T21:52:48.246Z,2.20
2022-11-22T21:57:10.253Z,2.20
2022-11-22T22:01:32.815Z,2.10
2022-11-22T22:05:54.995Z,2.10
2022-11-22T22:10:17.084Z,2.20
2022-11-22T22:14:38.921Z,2.30
2022-11-22T22:19:02.603Z,2.50
2022-11-22T22:23:27.846Z,2.70
2022-11-22T22:27:49.701Z,2.70
2022-11-22T22:32:11.939Z,2.70
2022-11-22T22:36:33.996Z,2.70
2022-11-22T22:40:58.435Z,2.60
2022-11-22T22:45:20.329Z,2.40
2022-11-22T22:49:42.319Z,2.30
2022-11-22T22:54:09.718Z,2.30
2022-11-22T22:58:31.274Z,2.20
2022-11-22T23:02:54.676Z,2.10
2022-11-22T23:07:16.545Z,1.90
2022-11-22T23:11:57.830Z,1.80
2022-11-22T23:16:19.780Z,1.70
2022-11-22T23:20:41.730Z,1.70
2022-11-22T23:25:04.332Z,1.70
2022-11-22T23:29:26.745Z,1.50
2022-11-22T23:33:48.784Z,1.40
2022-11-22T23:38:10.877Z,1.30
2022-11-22T23:42:32.708Z,1.20
2022-11-22T23:46:54.754Z,1.10
2022-11-22T23:51:16.782Z,1.00
2022-11-22T23:55:38.811Z,1.00
